sensor_id;sensor_type;location;lat;lon;timestamp;pressure;altitude;pressure_sealevel;temperature;humidity
14273;BME280;7220;49.450;11.052;2023-02-28T00:03:39;99055.84;;;-1.38;68.91
14273;BME280;7220;49.450;11.052;2023-02-28T00:07:40;99054.13;;;-1.36;69.74
14273;BME280;7220;49.450;11.052;2023-02-28T00:11:41;99065.38;;;-1.43;69.75
14273;BME280;7220;49.450;11.052;2023-02-28T00:15:42;99059.22;;;-1.51;70.04
14273;BME280;7220;49.450;11.052;2023-02-28T00:19:42;99047.06;;;-1.46;70.54
14273;BME280;7220;49.450;11.052;2023-02-28T00:23:42;99052.25;;;-1.54;70.28
14273;BME280;7220;49.450;11.052;2023-02-28T00:27:44;99041.09;;;-1.37;70.08
14273;BME280;7220;49.450;11.052;2023-02-28T00:31:44;99056.72;;;-1.34;69.60
14273;BME280;7220;49.450;11.052;2023-02-28T00:35:45;99054.00;;;-1.53;70.60
14273;BME280;7220;49.450;11.052;2023-02-28T00:39:48;99050.34;;;-1.69;70.95
14273;BME280;7220;49.450;11.052;2023-02-28T00:43:49;99051.25;;;-1.65;71.47
14273;BME280;7220;49.450;11.052;2023-02-28T00:47:49;99056.47;;;-1.65;71.52
14273;BME280;7220;49.450;11.052;2023-02-28T00:51:50;99053.88;;;-1.64;71.22
14273;BME280;7220;49.450;11.052;2023-02-28T00:55:50;99044.34;;;-1.65;71.93
14273;BME280;7220;49.450;11.052;2023-02-28T00:59:51;99047.84;;;-1.61;72.18
14273;BME280;7220;49.450;11.052;2023-02-28T01:03:54;99047.84;;;-1.58;71.51
14273;BME280;7220;49.450;11.052;2023-02-28T01:07:54;99041.00;;;-1.44;70.77
14273;BME280;7220;49.450;11.052;2023-02-28T01:11:54;99049.69;;;-1.49;71.12
14273;BME280;7220;49.450;11.052;2023-02-28T01:15:55;99040.88;;;-1.59;72.47
14273;BME280;7220;49.450;11.052;2023-02-28T01:19:56;99042.66;;;-1.55;71.56
14273;BME280;7220;49.450;11.052;2023-02-28T01:23:57;99040.06;;;-1.55;71.89
14273;BME280;7220;49.450;11.052;2023-02-28T01:27:57;99032.19;;;-1.60;71.95
14273;BME280;7220;49.450;11.052;2023-02-28T01:31:58;99030.56;;;-1.47;71.73
14273;BME280;7220;49.450;11.052;2023-02-28T01:36:05;99033.13;;;-1.51;72.10
14273;BME280;7220;49.450;11.052;2023-02-28T01:40:06;99031.34;;;-1.55;72.27
14273;BME280;7220;49.450;11.052;2023-02-28T01:48:55;99029.59;;;-1.58;72.60
14273;BME280;7220;49.450;11.052;2023-02-28T01:52:59;99020.88;;;-1.63;72.59
14273;BME280;7220;49.450;11.052;2023-02-28T01:57:04;99025.16;;;-1.70;73.44
14273;BME280;7220;49.450;11.052;2023-02-28T02:01:07;99009.56;;;-1.68;73.42
14273;BME280;7220;49.450;11.052;2023-02-28T02:05:14;99022.59;;;-1.65;73.51
14273;BME280;7220;49.450;11.052;2023-02-28T02:09:15;99010.38;;;-1.71;74.55
14273;BME280;7220;49.450;11.052;2023-02-28T02:17:56;99002.63;;;-1.60;73.61
14273;BME280;7220;49.450;11.052;2023-02-28T02:22:30;99012.16;;;-1.64;74.60
14273;BME280;7220;49.450;11.052;2023-02-28T02:35:26;99002.47;;;-1.82;74.68
14273;BME280;7220;49.450;11.052;2023-02-28T02:39:32;98988.53;;;-1.84;74.87
14273;BME280;7220;49.450;11.052;2023-02-28T02:43:44;98988.44;;;-1.96;75.33
14273;BME280;7220;49.450;11.052;2023-02-28T02:47:46;98991.00;;;-2.02;75.78
14273;BME280;7220;49.450;11.052;2023-02-28T02:51:49;98993.69;;;-1.93;75.55
14273;BME280;7220;49.450;11.052;2023-02-28T02:55:52;99000.63;;;-1.95;75.78
14273;BME280;7220;49.450;11.052;2023-02-28T02:59:55;98998.91;;;-1.90;75.58
14273;BME280;7220;49.450;11.052;2023-02-28T03:03:58;99002.47;;;-1.85;75.22
14273;BME280;7220;49.450;11.052;2023-02-28T03:07:59;98999.75;;;-1.91;75.89
14273;BME280;7220;49.450;11.052;2023-02-28T03:12:03;98997.09;;;-1.97;75.89
14273;BME280;7220;49.450;11.052;2023-02-28T03:16:29;99001.50;;;-1.92;76.04
14273;BME280;7220;49.450;11.052;2023-02-28T03:25:07;98997.16;;;-1.91;76.17
14273;BME280;7220;49.450;11.052;2023-02-28T03:29:25;99012.03;;;-1.81;76.19
14273;BME280;7220;49.450;11.052;2023-02-28T03:33:30;99004.13;;;-1.92;75.88
14273;BME280;7220;49.450;11.052;2023-02-28T03:37:33;99005.88;;;-1.89;76.39
14273;BME280;7220;49.450;11.052;2023-02-28T03:41:39;99001.56;;;-1.85;76.15
14273;BME280;7220;49.450;11.052;2023-02-28T03:45:43;98998.97;;;-1.84;76.45
14273;BME280;7220;49.450;11.052;2023-02-28T03:49:53;99002.47;;;-1.82;76.42
14273;BME280;7220;49.450;11.052;2023-02-28T03:54:04;99005.09;;;-1.79;76.68
14273;BME280;7220;49.450;11.052;2023-02-28T03:58:31;99016.34;;;-1.84;76.71
14273;BME280;7220;49.450;11.052;2023-02-28T04:02:35;99009.34;;;-1.90;76.92
14273;BME280;7220;49.450;11.052;2023-02-28T04:06:36;99019.00;;;-1.80;76.09
14273;BME280;7220;49.450;11.052;2023-02-28T04:10:36;99022.34;;;-1.92;77.01
14273;BME280;7220;49.450;11.052;2023-02-28T04:14:37;99016.16;;;-2.03;77.77
14273;BME280;7220;49.450;11.052;2023-02-28T04:18:41;99028.31;;;-2.03;78.12
14273;BME280;7220;49.450;11.052;2023-02-28T04:22:43;99017.94;;;-2.00;78.24
14273;BME280;7220;49.450;11.052;2023-02-28T04:26:49;99018.13;;;-1.79;77.06
14273;BME280;7220;49.450;11.052;2023-02-28T04:31:01;99014.63;;;-1.81;77.28
14273;BME280;7220;49.450;11.052;2023-02-28T04:35:02;99005.91;;;-1.83;77.05
14273;BME280;7220;49.450;11.052;2023-02-28T04:39:03;99018.94;;;-1.84;77.27
14273;BME280;7220;49.450;11.052;2023-02-28T04:43:04;99018.91;;;-1.89;77.92
14273;BME280;7220;49.450;11.052;2023-02-28T04:47:04;99014.81;;;-1.62;76.28
14273;BME280;7220;49.450;11.052;2023-02-28T04:51:07;99008.66;;;-1.70;76.95
14273;BME280;7220;49.450;11.052;2023-02-28T04:55:08;99003.31;;;-1.83;77.22
14273;BME280;7220;49.450;11.052;2023-02-28T04:59:08;99012.94;;;-1.79;77.23
14273;BME280;7220;49.450;11.052;2023-02-28T05:03:09;99019.03;;;-1.73;77.12
14273;BME280;7220;49.450;11.052;2023-02-28T05:07:09;99022.41;;;-1.85;77.96
14273;BME280;7220;49.450;11.052;2023-02-28T05:11:18;99028.56;;;-1.79;77.52
14273;BME280;7220;49.450;11.052;2023-02-28T05:15:19;99021.56;;;-1.84;77.81
14273;BME280;7220;49.450;11.052;2023-02-28T05:19:19;99022.31;;;-1.98;78.06
14273;BME280;7220;49.450;11.052;2023-02-28T05:23:22;99028.41;;;-1.91;77.82
14273;BME280;7220;49.450;11.052;2023-02-28T05:27:22;99025.84;;;-1.89;78.07
14273;BME280;7220;49.450;11.052;2023-02-28T05:31:23;99026.84;;;-1.73;77.13
14273;BME280;7220;49.450;11.052;2023-02-28T05:35:24;99021.59;;;-1.80;77.78
14273;BME280;7220;49.450;11.052;2023-02-28T05:39:24;99048.44;;;-1.88;78.40
14273;BME280;7220;49.450;11.052;2023-02-28T05:43:24;99025.81;;;-1.94;78.47
14273;BME280;7220;49.450;11.052;2023-02-28T05:47:25;99037.94;;;-1.96;78.16
14273;BME280;7220;49.450;11.052;2023-02-28T05:51:25;99035.22;;;-2.09;79.92
14273;BME280;7220;49.450;11.052;2023-02-28T05:55:26;99031.72;;;-2.11;79.57
14273;BME280;7220;49.450;11.052;2023-02-28T05:59:26;99034.41;;;-2.01;79.89
14273;BME280;7220;49.450;11.052;2023-02-28T06:03:26;99038.78;;;-2.00;79.32
14273;BME280;7220;49.450;11.052;2023-02-28T06:07:26;99050.09;;;-1.95;79.13
14273;BME280;7220;49.450;11.052;2023-02-28T06:11:27;99051.00;;;-1.92;78.76
14273;BME280;7220;49.450;11.052;2023-02-28T06:15:27;99050.13;;;-1.94;79.01
14273;BME280;7220;49.450;11.052;2023-02-28T06:19:28;99058.03;;;-1.86;78.77
14273;BME280;7220;49.450;11.052;2023-02-28T06:23:30;99047.44;;;-2.01;78.97
14273;BME280;7220;49.450;11.052;2023-02-28T06:27:31;99047.47;;;-1.98;79.42
14273;BME280;7220;49.450;11.052;2023-02-28T06:31:32;99052.72;;;-1.94;78.98
14273;BME280;7220;49.450;11.052;2023-02-28T06:35:32;99052.88;;;-1.80;78.33
14273;BME280;7220;49.450;11.052;2023-02-28T06:39:32;99055.50;;;-1.77;78.21
14273;BME280;7220;49.450;11.052;2023-02-28T06:43:35;99060.69;;;-1.80;77.82
14273;BME280;7220;49.450;11.052;2023-02-28T06:47:38;99072.00;;;-1.75;78.08
14273;BME280;7220;49.450;11.052;2023-02-28T06:51:43;99071.22;;;-1.69;77.65
14273;BME280;7220;49.450;11.052;2023-02-28T06:55:46;99070.25;;;-1.76;77.27
14273;BME280;7220;49.450;11.052;2023-02-28T06:59:46;99066.00;;;-1.69;77.54
14273;BME280;7220;49.450;11.052;2023-02-28T07:03:47;99071.25;;;-1.64;76.98
14273;BME280;7220;49.450;11.052;2023-02-28T07:07:52;99069.59;;;-1.57;76.84
14273;BME280;7220;49.450;11.052;2023-02-28T07:11:52;99084.47;;;-1.43;76.31
14273;BME280;7220;49.450;11.052;2023-02-28T07:15:55;99082.84;;;-1.31;76.05
14273;BME280;7220;49.450;11.052;2023-02-28T07:19:55;99082.69;;;-1.50;76.76
14273;BME280;7220;49.450;11.052;2023-02-28T07:23:56;99081.19;;;-1.24;76.11
14273;BME280;7220;49.450;11.052;2023-02-28T07:27:57;99077.75;;;-1.16;75.20
14273;BME280;7220;49.450;11.052;2023-02-28T07:31:59;99083.97;;;-0.97;74.61
14273;BME280;7220;49.450;11.052;2023-02-28T07:36:13;99099.47;;;-1.18;74.85
14273;BME280;7220;49.450;11.052;2023-02-28T07:40:15;99082.19;;;-1.02;74.84
14273;BME280;7220;49.450;11.052;2023-02-28T07:44:17;99084.94;;;-0.85;74.19
14273;BME280;7220;49.450;11.052;2023-02-28T07:48:18;99086.66;;;-0.89;74.47
14273;BME280;7220;49.450;11.052;2023-02-28T07:52:18;99088.41;;;-0.83;73.93
14273;BME280;7220;49.450;11.052;2023-02-28T07:56:18;99078.16;;;-0.51;72.64
14273;BME280;7220;49.450;11.052;2023-02-28T08:00:19;99083.44;;;-0.40;72.69
14273;BME280;7220;49.450;11.052;2023-02-28T08:04:19;99086.97;;;-0.24;71.31
14273;BME280;7220;49.450;11.052;2023-02-28T08:08:19;99083.53;;;-0.13;70.84
14273;BME280;7220;49.450;11.052;2023-02-28T08:12:20;99081.81;;;-0.10;70.62
14273;BME280;7220;49.450;11.052;2023-02-28T08:16:21;99085.28;;;-0.17;71.75
14273;BME280;7220;49.450;11.052;2023-02-28T08:20:23;99066.16;;;0.01;70.88
14273;BME280;7220;49.450;11.052;2023-02-28T08:24:23;99084.47;;;-0.01;70.74
14273;BME280;7220;49.450;11.052;2023-02-28T08:28:24;99081.03;;;0.14;70.33
14273;BME280;7220;49.450;11.052;2023-02-28T08:32:24;99081.00;;;0.10;70.37
14273;BME280;7220;49.450;11.052;2023-02-28T08:36:25;99074.94;;;0.19;68.72
14273;BME280;7220;49.450;11.052;2023-02-28T08:40:28;99083.66;;;0.14;68.53
14273;BME280;7220;49.450;11.052;2023-02-28T08:44:28;99080.16;;;0.22;68.33
14273;BME280;7220;49.450;11.052;2023-02-28T08:48:31;99083.66;;;0.33;68.12
14273;BME280;7220;49.450;11.052;2023-02-28T08:52:31;99081.06;;;0.30;67.09
14273;BME280;7220;49.450;11.052;2023-02-28T08:56:32;99098.50;;;0.34;66.91
14273;BME280;7220;49.450;11.052;2023-02-28T09:00:32;99074.09;;;0.29;67.07
14273;BME280;7220;49.450;11.052;2023-02-28T09:04:33;99078.44;;;0.38;66.71
14273;BME280;7220;49.450;11.052;2023-02-28T09:08:33;99085.47;;;0.56;66.23
14273;BME280;7220;49.450;11.052;2023-02-28T09:12:34;99077.63;;;0.77;65.89
14273;BME280;7220;49.450;11.052;2023-02-28T09:16:35;99069.75;;;0.84;64.58
14273;BME280;7220;49.450;11.052;2023-02-28T09:20:40;99075.00;;;1.02;64.44
14273;BME280;7220;49.450;11.052;2023-02-28T09:24:41;99074.97;;;1.15;64.50
14273;BME280;7220;49.450;11.052;2023-02-28T09:28:41;99072.34;;;1.08;63.24
14273;BME280;7220;49.450;11.052;2023-02-28T09:32:42;99074.09;;;1.20;62.34
14273;BME280;7220;49.450;11.052;2023-02-28T09:36:43;99074.09;;;1.17;62.50
14273;BME280;7220;49.450;11.052;2023-02-28T09:41:00;99075.81;;;1.31;61.36
14273;BME280;7220;49.450;11.052;2023-02-28T09:45:06;99079.28;;;1.40;60.29
14273;BME280;7220;49.450;11.052;2023-02-28T09:49:15;99076.66;;;1.40;60.38
14273;BME280;7220;49.450;11.052;2023-02-28T09:53:31;99084.47;;;1.53;60.27
14273;BME280;7220;49.450;11.052;2023-02-28T09:57:39;99076.56;;;1.75;59.59
14273;BME280;7220;49.450;11.052;2023-02-28T10:01:50;99080.88;;;1.83;58.59
14273;BME280;7220;49.450;11.052;2023-02-28T10:05:59;99073.84;;;1.92;58.93
14273;BME280;7220;49.450;11.052;2023-02-28T10:10:14;99089.63;;;1.85;58.33
14273;BME280;7220;49.450;11.052;2023-02-28T10:14:19;99075.56;;;1.99;57.48
14273;BME280;7220;49.450;11.052;2023-02-28T10:18:25;99082.53;;;2.04;57.75
14273;BME280;7220;49.450;11.052;2023-02-28T10:22:59;99089.44;;;2.24;56.69
14273;BME280;7220;49.450;11.052;2023-02-28T10:27:29;99071.00;;;2.33;55.89
14273;BME280;7220;49.450;11.052;2023-02-28T10:31:30;99072.78;;;2.31;55.83
14273;BME280;7220;49.450;11.052;2023-02-28T10:35:30;99063.94;;;2.45;54.16
14273;BME280;7220;49.450;11.052;2023-02-28T10:39:46;99065.69;;;2.46;54.05
14273;BME280;7220;49.450;11.052;2023-02-28T10:43:46;99065.47;;;2.77;54.12
14273;BME280;7220;49.450;11.052;2023-02-28T10:47:56;99060.13;;;2.86;53.43
14273;BME280;7220;49.450;11.052;2023-02-28T10:51:59;99061.84;;;2.92;52.62
14273;BME280;7220;49.450;11.052;2023-02-28T10:56:15;99065.19;;;3.05;51.98
14273;BME280;7220;49.450;11.052;2023-02-28T11:00:22;99055.50;;;3.13;52.04
14273;BME280;7220;49.450;11.052;2023-02-28T11:08:30;99061.19;;;3.55;49.83
14273;BME280;7220;49.450;11.052;2023-02-28T11:12:38;99053.34;;;3.54;50.33
14273;BME280;7220;49.450;11.052;2023-02-28T11:16:38;99054.91;;;3.67;50.42
14273;BME280;7220;49.450;11.052;2023-02-28T11:20:39;99053.88;;;3.81;49.71
14273;BME280;7220;49.450;11.052;2023-02-28T11:24:43;99052.75;;;4.00;48.86
14273;BME280;7220;49.450;11.052;2023-02-28T11:28:45;99053.44;;;4.16;48.29
14273;BME280;7220;49.450;11.052;2023-02-28T11:32:49;99047.88;;;4.35;47.99
14273;BME280;7220;49.450;11.052;2023-02-28T11:36:51;99053.16;;;4.35;47.45
14273;BME280;7220;49.450;11.052;2023-02-28T11:45:18;99035.34;;;4.52;46.97
14273;BME280;7220;49.450;11.052;2023-02-28T11:53:52;99027.38;;;6.39;45.23
14273;BME280;7220;49.450;11.052;2023-02-28T11:58:02;99029.56;;;7.28;44.47
14273;BME280;7220;49.450;11.052;2023-02-28T12:11:09;99021.31;;;9.38;39.92
14273;BME280;7220;49.450;11.052;2023-02-28T12:15:23;99016.25;;;10.04;38.57
14273;BME280;7220;49.450;11.052;2023-02-28T12:27:55;98995.28;;;11.49;35.23
14273;BME280;7220;49.450;11.052;2023-02-28T12:36:09;98994.13;;;12.13;34.32
14273;BME280;7220;49.450;11.052;2023-02-28T12:40:15;98986.28;;;12.47;33.69
14273;BME280;7220;49.450;11.052;2023-02-28T12:44:23;98997.47;;;12.73;32.89
14273;BME280;7220;49.450;11.052;2023-02-28T12:48:40;98976.28;;;12.15;31.22
14273;BME280;7220;49.450;11.052;2023-02-28T13:05:46;98990.09;;;12.05;30.36
14273;BME280;7220;49.450;11.052;2023-02-28T13:09:55;98987.38;;;12.80;31.23
14273;BME280;7220;49.450;11.052;2023-02-28T13:14:02;98983.91;;;13.30;30.76
14273;BME280;7220;49.450;11.052;2023-02-28T13:18:02;98977.84;;;13.62;29.92
14273;BME280;7220;49.450;11.052;2023-02-28T13:22:04;98975.88;;;13.65;29.68
14273;BME280;7220;49.450;11.052;2023-02-28T13:26:05;98996.63;;;13.60;30.26
14273;BME280;7220;49.450;11.052;2023-02-28T13:48:02;98982.34;;;13.77;29.73
14273;BME280;7220;49.450;11.052;2023-02-28T13:56:23;98966.44;;;14.08;28.93
14273;BME280;7220;49.450;11.052;2023-02-28T14:00:54;98973.09;;;14.00;29.36
14273;BME280;7220;49.450;11.052;2023-02-28T14:05:06;98971.44;;;14.14;29.23
14273;BME280;7220;49.450;11.052;2023-02-28T14:13:42;98962.91;;;14.23;29.12
14273;BME280;7220;49.450;11.052;2023-02-28T14:17:44;98966.88;;;14.48;29.27
14273;BME280;7220;49.450;11.052;2023-02-28T14:25:55;98960.00;;;14.58;28.39
14273;BME280;7220;49.450;11.052;2023-02-28T14:38:31;98961.09;;;14.40;28.66
14273;BME280;7220;49.450;11.052;2023-02-28T14:42:35;98970.31;;;13.86;29.20
14273;BME280;7220;49.450;11.052;2023-02-28T14:46:39;98982.72;;;13.53;29.71
14273;BME280;7220;49.450;11.052;2023-02-28T14:50:49;98962.25;;;13.36;29.75
14273;BME280;7220;49.450;11.052;2023-02-28T14:55:01;98959.13;;;12.75;30.43
14273;BME280;7220;49.450;11.052;2023-02-28T14:59:04;98956.69;;;12.17;31.02
14273;BME280;7220;49.450;11.052;2023-02-28T15:03:31;98954.91;;;11.18;32.82
14273;BME280;7220;49.450;11.052;2023-02-28T15:07:32;98960.69;;;10.44;33.02
14273;BME280;7220;49.450;11.052;2023-02-28T15:11:32;98966.03;;;9.74;34.18
14273;BME280;7220;49.450;11.052;2023-02-28T15:15:52;98961.09;;;8.91;35.81
14273;BME280;7220;49.450;11.052;2023-02-28T15:19:54;98957.97;;;8.52;36.34
14273;BME280;7220;49.450;11.052;2023-02-28T15:23:59;98974.97;;;8.17;37.40
14273;BME280;7220;49.450;11.052;2023-02-28T15:28:03;98970.59;;;7.86;37.58
14273;BME280;7220;49.450;11.052;2023-02-28T15:32:05;98978.81;;;7.47;38.92
14273;BME280;7220;49.450;11.052;2023-02-28T15:36:09;98977.78;;;7.21;38.52
14273;BME280;7220;49.450;11.052;2023-02-28T15:40:18;98974.66;;;7.05;39.34
14273;BME280;7220;49.450;11.052;2023-02-28T15:48:31;98983.44;;;6.72;40.71
14273;BME280;7220;49.450;11.052;2023-02-28T15:52:40;98981.94;;;6.62;40.92
14273;BME280;7220;49.450;11.052;2023-02-28T15:56:46;98982.16;;;6.53;40.84
14273;BME280;7220;49.450;11.052;2023-02-28T16:01:17;98982.38;;;6.43;41.43
14273;BME280;7220;49.450;11.052;2023-02-28T16:05:29;98996.50;;;6.03;41.52
14273;BME280;7220;49.450;11.052;2023-02-28T16:09:31;98986.06;;;5.97;42.12
14273;BME280;7220;49.450;11.052;2023-02-28T16:13:32;98997.34;;;5.63;43.11
14273;BME280;7220;49.450;11.052;2023-02-28T16:17:38;99005.44;;;5.53;43.34
14273;BME280;7220;49.450;11.052;2023-02-28T16:21:38;99005.88;;;5.32;44.08
14273;BME280;7220;49.450;11.052;2023-02-28T16:25:43;99018.16;;;5.33;44.05
14273;BME280;7220;49.450;11.052;2023-02-28T16:29:44;99016.00;;;5.07;44.51
14273;BME280;7220;49.450;11.052;2023-02-28T16:33:45;99021.41;;;4.99;45.01
14273;BME280;7220;49.450;11.052;2023-02-28T16:37:46;99011.31;;;4.72;45.71
14273;BME280;7220;49.450;11.052;2023-02-28T16:41:48;99007.16;;;4.57;45.54
14273;BME280;7220;49.450;11.052;2023-02-28T16:45:54;99023.28;;;4.39;46.44
14273;BME280;7220;49.450;11.052;2023-02-28T16:49:55;99024.84;;;4.49;46.00
14273;BME280;7220;49.450;11.052;2023-02-28T16:53:56;99029.28;;;4.47;46.01
14273;BME280;7220;49.450;11.052;2023-02-28T16:58:00;99048.00;;;4.25;47.00
14273;BME280;7220;49.450;11.052;2023-02-28T17:02:01;99055.28;;;4.08;47.51
14273;BME280;7220;49.450;11.052;2023-02-28T17:06:01;99053.69;;;3.94;47.69
14273;BME280;7220;49.450;11.052;2023-02-28T17:10:02;99074.00;;;3.85;48.13
14273;BME280;7220;49.450;11.052;2023-02-28T17:14:08;99059.22;;;3.76;47.99
14273;BME280;7220;49.450;11.052;2023-02-28T17:18:13;99075.00;;;3.73;48.74
14273;BME280;7220;49.450;11.052;2023-02-28T17:22:15;99074.13;;;3.74;48.53
14273;BME280;7220;49.450;11.052;2023-02-28T17:26:18;99079.59;;;3.55;49.03
14273;BME280;7220;49.450;11.052;2023-02-28T17:30:23;99083.16;;;3.50;49.84
14273;BME280;7220;49.450;11.052;2023-02-28T17:34:24;99084.97;;;3.41;49.57
14273;BME280;7220;49.450;11.052;2023-02-28T17:38:24;99091.22;;;3.29;50.30
14273;BME280;7220;49.450;11.052;2023-02-28T17:42:24;99089.56;;;3.22;50.10
14273;BME280;7220;49.450;11.052;2023-02-28T17:46:25;99101.88;;;3.14;50.52
14273;BME280;7220;49.450;11.052;2023-02-28T17:50:26;99101.06;;;3.12;50.95
14273;BME280;7220;49.450;11.052;2023-02-28T17:54:26;99102.69;;;3.24;50.47
14273;BME280;7220;49.450;11.052;2023-02-28T17:58:27;99099.25;;;3.14;51.41
14273;BME280;7220;49.450;11.052;2023-02-28T18:02:27;99096.00;;;2.89;51.36
14273;BME280;7220;49.450;11.052;2023-02-28T18:06:35;99100.31;;;2.96;51.01
14273;BME280;7220;49.450;11.052;2023-02-28T18:10:36;99116.13;;;2.88;51.66
14273;BME280;7220;49.450;11.052;2023-02-28T18:14:36;99112.75;;;2.71;52.17
14273;BME280;7220;49.450;11.052;2023-02-28T18:18:36;99124.16;;;2.62;52.14
14273;BME280;7220;49.450;11.052;2023-02-28T18:22:39;99116.25;;;2.70;51.88
14273;BME280;7220;49.450;11.052;2023-02-28T18:26:41;99119.69;;;2.78;52.19
14273;BME280;7220;49.450;11.052;2023-02-28T18:30:41;99114.38;;;2.86;51.66
14273;BME280;7220;49.450;11.052;2023-02-28T18:34:41;99112.69;;;2.77;52.39
14273;BME280;7220;49.450;11.052;2023-02-28T18:38:42;99114.69;;;2.39;53.44
14273;BME280;7220;49.450;11.052;2023-02-28T18:42:43;99112.97;;;2.33;53.82
14273;BME280;7220;49.450;11.052;2023-02-28T18:46:43;99111.16;;;2.46;53.61
14273;BME280;7220;49.450;11.052;2023-02-28T18:50:43;99107.66;;;2.46;53.96
14273;BME280;7220;49.450;11.052;2023-02-28T18:54:44;99108.53;;;2.45;53.62
14273;BME280;7220;49.450;11.052;2023-02-28T18:58:44;99107.69;;;2.41;54.19
14273;BME280;7220;49.450;11.052;2023-02-28T19:02:45;99100.72;;;2.35;54.22
14273;BME280;7220;49.450;11.052;2023-02-28T19:06:45;99107.72;;;2.36;54.37
14273;BME280;7220;49.450;11.052;2023-02-28T19:10:45;99098.16;;;2.25;54.71
